Time;durP1;ratioP1;P1;durP2;ratioP2;P2;SDS_P1;SDS_P2;PMS_P1;PMS_P2;Temp;Humidity;BMP_temperature;BMP_pressure;BME280_temperature;BME280_humidity;BME280_pressure;Samples;Min_cycle;Max_cycle;Signal;HPM_P1;HPM_P2
2023/07/06 00:01:40;;;;;;;3.40;2.30;;;17.50;99.90;;;;;;5107755;28;20659;-75
2023/07/06 00:04:09;;;;;;;2.47;2.17;;;17.60;99.90;;;;;;5112227;27;20278;-75
2023/07/06 00:06:36;;;;;;;2.70;2.33;;;17.60;99.90;;;;;;5117183;27;20262;-75
2023/07/06 00:09:05;;;;;;;3.37;2.37;;;17.60;99.90;;;;;;5108031;28;20234;-75
2023/07/06 00:11:35;;;;;;;6.37;2.17;;;17.60;99.90;;;;;;5108443;28;20236;-75
2023/07/06 00:14:03;;;;;;;3.03;2.30;;;17.30;99.90;;;;;;5108266;27;20662;-75
2023/07/06 00:16:30;;;;;;;2.60;2.40;;;17.30;99.90;;;;;;5108077;28;20210;-76
2023/07/06 00:18:58;;;;;;;3.00;2.60;;;17.20;99.90;;;;;;5107840;28;20249;-75
2023/07/06 00:21:27;;;;;;;3.13;2.63;;;17.20;99.90;;;;;;5116660;27;20626;-76
2023/07/06 00:23:55;;;;;;;3.60;2.20;;;17.10;99.90;;;;;;5127432;27;20326;-75
2023/07/06 00:26:22;;;;;;;3.13;2.50;;;17.10;99.90;;;;;;5141339;27;20212;-77
2023/07/06 00:28:49;;;;;;;3.60;2.20;;;17.10;99.90;;;;;;5140273;27;20265;-78
2023/07/06 00:31:21;;;;;;;3.97;2.40;;;17.20;99.90;;;;;;5128408;27;20209;-78
2023/07/06 00:33:48;;;;;;;4.80;2.40;;;17.20;99.90;;;;;;5109118;27;20182;-79
2023/07/06 00:36:16;;;;;;;3.43;2.10;;;17.20;99.90;;;;;;5107839;28;20212;-76
2023/07/06 00:38:44;;;;;;;5.37;3.10;;;17.30;99.90;;;;;;5106977;28;20210;-76
2023/07/06 00:41:12;;;;;;;2.40;2.20;;;17.20;99.90;;;;;;5107423;28;20836;-76
2023/07/06 00:43:52;;;;;;;4.13;2.27;;;17.10;99.90;;;;;;5125302;27;20197;-76
2023/07/06 00:46:20;;;;;;;4.53;2.60;;;17.10;99.90;;;;;;5127516;27;20228;-76
2023/07/06 00:48:48;;;;;;;8.20;2.93;;;16.90;99.90;;;;;;5127654;27;20334;-75
2023/07/06 00:51:17;;;;;;;4.27;2.47;;;16.70;99.90;;;;;;5126497;27;20574;-76
2023/07/06 00:53:48;;;;;;;2.60;2.40;;;16.60;99.90;;;;;;5124548;27;20288;-76
2023/07/06 00:56:19;;;;;;;2.40;2.20;;;16.50;99.90;;;;;;5126998;27;20234;-76
2023/07/06 00:58:48;;;;;;;3.70;2.40;;;16.50;99.90;;;;;;5126637;27;20196;-76
2023/07/06 01:01:19;;;;;;;3.13;2.50;;;16.50;99.90;;;;;;5127252;27;20743;-76
2023/07/06 01:03:48;;;;;;;3.00;2.23;;;16.50;99.90;;;;;;5126231;27;20210;-77
2023/07/06 01:06:17;;;;;;;2.73;2.40;;;16.60;99.90;;;;;;5122681;27;20289;-76
2023/07/06 01:08:47;;;;;;;3.73;2.33;;;16.60;99.90;;;;;;5112903;27;20231;-76
2023/07/06 01:11:15;;;;;;;3.67;2.40;;;16.60;99.90;;;;;;5117289;27;20269;-76
2023/07/06 01:13:48;;;;;;;3.43;2.30;;;16.60;99.90;;;;;;5126518;27;20297;-76
2023/07/06 01:16:37;;;;;;;3.60;2.60;;;16.60;99.90;;;;;;5126345;27;20589;-76
2023/07/06 01:19:18;;;;;;;3.37;2.37;;;16.60;99.90;;;;;;5105394;28;20262;-76
2023/07/06 01:21:51;;;;;;;5.10;2.60;;;16.60;99.90;;;;;;5105970;28;20218;-77
2023/07/06 01:24:58;;;;;;;4.23;2.40;;;16.60;99.90;;;;;;5106540;28;20226;-76
2023/07/06 01:27:57;;;;;;;3.23;2.30;;;16.60;99.90;;;;;;5106535;27;20200;-77
2023/07/06 01:30:48;;;;;;;3.97;2.40;;;16.60;99.90;;;;;;5121518;27;20739;-76
2023/07/06 01:33:20;;;;;;;4.33;2.60;;;16.50;99.90;;;;;;5126627;27;20619;-77
2023/07/06 01:35:56;;;;;;;5.57;2.53;;;16.30;99.90;;;;;;5126174;27;20221;-76
2023/07/06 01:38:24;;;;;;;3.00;2.27;;;16.30;99.90;;;;;;5126005;27;20225;-76
2023/07/06 01:40:55;;;;;;;2.23;2.13;;;16.20;99.90;;;;;;5126237;27;20734;-77
2023/07/06 01:43:22;;;;;;;4.10;2.50;;;16.20;99.90;;;;;;5126189;27;20209;-77
2023/07/06 01:45:49;;;;;;;4.30;2.63;;;16.20;99.90;;;;;;5126487;27;20291;-76
2023/07/06 01:48:17;;;;;;;2.37;2.17;;;16.10;99.90;;;;;;5125857;27;20292;-76
2023/07/06 01:50:51;;;;;;;5.50;2.40;;;16.10;99.90;;;;;;5125915;27;20206;-76
2023/07/06 01:53:22;;;;;;;4.90;2.87;;;16.20;99.90;;;;;;5126019;27;20387;-76
2023/07/06 01:55:53;;;;;;;3.37;2.50;;;16.20;99.90;;;;;;5134819;27;20244;-76
2023/07/06 01:58:26;;;;;;;4.80;2.60;;;16.20;99.90;;;;;;5111387;27;20206;-76
2023/07/06 02:01:00;;;;;;;3.70;2.63;;;16.30;99.90;;;;;;5126543;27;20451;-76
2023/07/06 02:03:29;;;;;;;4.33;3.00;;;16.30;99.90;;;;;;5126285;27;20379;-76
2023/07/06 02:05:56;;;;;;;3.40;2.50;;;16.20;99.90;;;;;;5126217;27;20292;-76
2023/07/06 02:08:24;;;;;;;3.13;2.50;;;16.10;99.90;;;;;;5105637;28;20214;-75
2023/07/06 02:10:52;;;;;;;4.30;2.63;;;16.10;99.90;;;;;;5105879;28;20209;-76
2023/07/06 02:13:19;;;;;;;4.13;2.70;;;16.20;99.90;;;;;;5110002;27;20201;-75
2023/07/06 02:15:46;;;;;;;4.07;2.40;;;16.20;99.90;;;;;;5125980;28;20205;-75
2023/07/06 02:18:13;;;;;;;8.40;3.33;;;16.20;99.90;;;;;;5110483;28;20233;-76
2023/07/06 02:20:41;;;;;;;3.03;2.43;;;16.30;99.90;;;;;;5108199;28;20297;-75
2023/07/06 02:23:11;;;;;;;2.67;2.47;;;16.40;99.90;;;;;;5116278;28;20332;-75
2023/07/06 02:25:39;;;;;;;4.10;2.60;;;16.40;99.90;;;;;;5113486;28;20214;-76
2023/07/06 02:28:08;;;;;;;3.83;2.80;;;16.50;99.90;;;;;;5115838;28;20201;-76
2023/07/06 02:30:36;;;;;;;3.20;2.70;;;16.50;99.90;;;;;;5117360;27;20372;-75
2023/07/06 02:33:03;;;;;;;3.93;2.30;;;16.60;99.90;;;;;;5125824;27;20213;-76
2023/07/06 02:35:32;;;;;;;3.50;2.57;;;16.60;99.90;;;;;;5127794;27;20209;-75
2023/07/06 02:38:00;;;;;;;4.43;3.00;;;16.60;99.90;;;;;;5112145;27;20217;-76
2023/07/06 02:40:27;;;;;;;3.80;2.00;;;16.70;99.90;;;;;;5107313;28;20770;-75
2023/07/06 02:42:56;;;;;;;2.43;2.27;;;16.70;99.90;;;;;;5118862;27;20208;-75
2023/07/06 02:45:23;;;;;;;2.77;2.30;;;16.60;99.90;;;;;;5114597;27;20360;-76
2023/07/06 02:47:50;;;;;;;2.63;2.43;;;16.50;99.90;;;;;;5107126;28;20241;-75
2023/07/06 02:50:17;;;;;;;5.10;2.30;;;16.40;99.90;;;;;;5107415;28;20232;-75
2023/07/06 02:52:44;;;;;;;3.53;2.50;;;16.30;99.90;;;;;;5107532;28;20824;-74
2023/07/06 02:55:12;;;;;;;2.67;2.40;;;16.30;99.90;;;;;;5116699;27;20216;-75
2023/07/06 02:57:40;;;;;;;6.20;2.80;;;16.30;99.90;;;;;;5128494;27;20234;-75
2023/07/06 03:00:12;;;;;;;2.50;2.30;;;16.30;99.90;;;;;;5108160;28;20566;-75
2023/07/06 03:02:39;;;;;;;5.57;2.60;;;16.30;99.90;;;;;;5116890;27;20205;-75
2023/07/06 03:05:07;;;;;;;5.93;2.57;;;16.30;99.90;;;;;;5126764;27;20229;-74
2023/07/06 03:07:34;;;;;;;4.73;2.27;;;16.40;99.90;;;;;;5126339;27;20260;-75
2023/07/06 03:10:01;;;;;;;4.20;2.60;;;16.50;99.90;;;;;;5108306;28;20241;-74
2023/07/06 03:12:36;;;;;;;3.90;2.20;;;16.30;99.90;;;;;;5109088;28;20206;-75
2023/07/06 03:15:05;;;;;;;3.57;2.73;;;16.20;99.90;;;;;;5109389;28;20190;-75
2023/07/06 03:17:32;;;;;;;2.67;2.43;;;16.30;99.90;;;;;;5109238;28;20206;-75
2023/07/06 03:19:59;;;;;;;2.70;2.50;;;16.30;99.90;;;;;;5108811;28;20242;-75
2023/07/06 03:22:27;;;;;;;2.90;2.33;;;16.50;99.90;;;;;;5108618;28;20236;-75
2023/07/06 03:24:54;;;;;;;2.97;2.67;;;16.40;99.90;;;;;;5110588;27;20300;-74
2023/07/06 03:27:21;;;;;;;3.13;2.70;;;16.40;99.90;;;;;;5149652;27;20303;-74
2023/07/06 03:29:49;;;;;;;2.60;2.40;;;16.20;99.90;;;;;;5131998;27;20789;-75
2023/07/06 03:32:17;;;;;;;7.73;2.77;;;16.20;99.90;;;;;;5129173;27;20205;-74
2023/07/06 03:34:45;;;;;;;3.30;2.97;;;16.20;99.90;;;;;;5128878;27;20213;-74
2023/07/06 03:37:12;;;;;;;2.53;2.33;;;16.20;99.90;;;;;;5119484;27;20255;-74
2023/07/06 03:39:39;;;;;;;4.23;2.60;;;16.30;99.90;;;;;;5107948;28;20210;-75
2023/07/06 03:42:08;;;;;;;4.20;2.93;;;16.20;99.90;;;;;;5107388;28;20210;-75
2023/07/06 03:44:35;;;;;;;3.27;2.73;;;16.20;99.90;;;;;;5107744;28;20223;-74
2023/07/06 03:47:03;;;;;;;2.73;2.53;;;16.20;99.90;;;;;;5107962;28;20213;-75
2023/07/06 03:49:33;;;;;;;2.80;2.23;;;16.10;99.90;;;;;;5108002;28;20221;-74
2023/07/06 03:52:02;;;;;;;4.00;2.67;;;16.10;99.90;;;;;;5122147;27;20206;-74
2023/07/06 03:54:29;;;;;;;3.63;2.80;;;16.10;99.90;;;;;;5128460;27;20288;-74
2023/07/06 03:56:56;;;;;;;2.60;2.40;;;16.10;99.90;;;;;;5127968;27;20576;-75
2023/07/06 03:59:23;;;;;;;3.30;2.67;;;16.00;99.90;;;;;;5128045;27;20667;-75
2023/07/06 04:01:50;;;;;;;3.87;2.47;;;16.00;99.90;;;;;;5128210;27;20266;-75
2023/07/06 04:04:20;;;;;;;2.83;2.53;;;16.00;99.90;;;;;;5128275;27;20320;-75
2023/07/06 04:06:46;;;;;;;3.63;2.57;;;16.20;99.90;;;;;;5128332;27;20229;-74
2023/07/06 04:09:13;;;;;;;2.83;2.63;;;16.20;99.90;;;;;;5128294;27;20225;-74
2023/07/06 04:11:40;;;;;;;2.77;2.50;;;16.20;99.90;;;;;;5128284;27;20284;-75
2023/07/06 04:14:08;;;;;;;2.60;2.40;;;16.00;99.90;;;;;;5128601;27;20209;-75
2023/07/06 04:16:35;;;;;;;3.07;2.70;;;15.90;99.90;;;;;;5128303;27;20215;-75
2023/07/06 04:19:02;;;;;;;3.47;2.60;;;15.90;99.90;;;;;;5128358;27;20312;-74
2023/07/06 04:21:30;;;;;;;3.00;2.63;;;15.90;99.90;;;;;;5127735;27;20201;-75
2023/07/06 04:23:57;;;;;;;2.90;2.60;;;15.90;99.90;;;;;;5127469;27;20253;-75
2023/07/06 04:26:24;;;;;;;5.53;2.60;;;15.80;99.90;;;;;;5141250;27;20244;-74
2023/07/06 04:28:51;;;;;;;4.27;2.53;;;15.90;99.90;;;;;;5148682;27;20205;-74
2023/07/06 04:31:18;;;;;;;5.10;2.90;;;15.80;99.90;;;;;;5148370;27;20232;-75
2023/07/06 04:33:45;;;;;;;2.90;2.63;;;15.80;99.90;;;;;;5148482;27;20215;-75
2023/07/06 04:36:12;;;;;;;3.50;2.27;;;15.90;99.90;;;;;;5147268;27;20299;-75
2023/07/06 04:38:41;;;;;;;2.43;2.23;;;15.80;99.90;;;;;;5127738;27;20205;-75
2023/07/06 04:41:08;;;;;;;4.63;2.60;;;16.00;99.90;;;;;;5127653;27;21177;-75
2023/07/06 04:43:35;;;;;;;2.97;2.77;;;15.90;99.90;;;;;;5127745;27;20209;-75
2023/07/06 04:46:02;;;;;;;2.73;2.53;;;16.00;99.90;;;;;;5127800;27;20288;-74
2023/07/06 04:48:29;;;;;;;2.97;2.60;;;15.90;99.90;;;;;;5142882;27;20216;-75
2023/07/06 04:50:56;;;;;;;3.53;2.77;;;16.00;99.90;;;;;;5148040;27;20255;-75
2023/07/06 04:53:25;;;;;;;2.37;2.17;;;16.00;99.90;;;;;;5147741;27;20671;-74
2023/07/06 04:55:54;;;;;;;3.30;3.00;;;16.00;99.90;;;;;;5142128;27;20231;-74
2023/07/06 04:58:21;;;;;;;3.40;2.63;;;16.00;99.90;;;;;;5148068;27;20196;-75
2023/07/06 05:00:51;;;;;;;3.07;2.50;;;16.10;99.90;;;;;;5148187;27;20223;-75
2023/07/06 05:03:18;;;;;;;3.10;2.80;;;16.10;99.90;;;;;;5148300;27;20205;-75
2023/07/06 05:05:47;;;;;;;3.93;2.57;;;16.20;99.90;;;;;;5122979;27;20309;-75
2023/07/06 05:08:16;;;;;;;2.93;2.63;;;16.30;99.90;;;;;;5106326;28;20996;-74
2023/07/06 05:10:46;;;;;;;4.30;2.73;;;16.50;99.90;;;;;;5106415;28;20722;-74
2023/07/06 05:13:14;;;;;;;2.93;2.67;;;16.50;99.90;;;;;;5106868;28;21114;-74
2023/07/06 05:15:41;;;;;;;3.00;2.57;;;16.40;99.90;;;;;;5106415;28;20206;-74
2023/07/06 05:18:08;;;;;;;3.27;2.60;;;16.30;99.90;;;;;;5106626;28;20202;-74
2023/07/06 05:20:35;;;;;;;3.13;2.67;;;16.40;99.90;;;;;;5106358;28;20213;-74
2023/07/06 05:23:05;;;;;;;3.03;2.37;;;16.40;99.90;;;;;;5106683;28;20317;-74
2023/07/06 05:25:33;;;;;;;3.07;2.40;;;16.40;99.90;;;;;;5119388;27;20208;-74
2023/07/06 05:27:59;;;;;;;3.53;2.63;;;16.40;99.90;;;;;;5145898;27;20299;-74
2023/07/06 05:30:28;;;;;;;2.47;2.27;;;16.40;99.90;;;;;;5126750;27;20229;-74
2023/07/06 05:32:55;;;;;;;3.50;2.30;;;16.40;99.90;;;;;;5127134;27;20313;-74
2023/07/06 05:35:23;;;;;;;3.93;2.30;;;16.50;99.90;;;;;;5126406;27;20212;-74
2023/07/06 05:37:51;;;;;;;2.40;2.20;;;16.50;99.90;;;;;;5111744;27;20209;-74
2023/07/06 05:40:18;;;;;;;3.00;2.60;;;16.50;99.90;;;;;;5105612;28;20209;-74
2023/07/06 05:42:45;;;;;;;3.10;2.80;;;16.60;99.90;;;;;;5105679;28;20206;-75
2023/07/06 05:45:11;;;;;;;3.20;2.90;;;16.60;99.90;;;;;;5125802;27;20995;-75
2023/07/06 05:47:40;;;;;;;4.30;2.70;;;16.60;99.90;;;;;;5126160;27;20300;-74
2023/07/06 05:50:08;;;;;;;3.67;2.30;;;16.70;99.90;;;;;;5126309;27;20316;-74
2023/07/06 05:52:35;;;;;;;2.40;2.20;;;16.60;99.90;;;;;;5106902;28;20747;-75
2023/07/06 05:55:02;;;;;;;2.60;2.40;;;16.50;99.90;;;;;;5106131;28;20293;-74
2023/07/06 05:57:29;;;;;;;2.80;2.40;;;16.60;99.90;;;;;;5105596;28;20328;-74
2023/07/06 05:59:55;;;;;;;4.67;2.27;;;16.50;99.90;;;;;;5105576;28;20838;-74
2023/07/06 06:02:23;;;;;;;2.80;2.60;;;16.60;99.90;;;;;;5105712;28;20278;-74
2023/07/06 06:04:51;;;;;;;3.13;2.80;;;16.60;99.90;;;;;;5105258;28;20206;-75
2023/07/06 06:07:19;;;;;;;3.03;2.30;;;16.50;99.90;;;;;;5105502;28;20656;-74
2023/07/06 06:09:47;;;;;;;2.80;2.40;;;16.50;99.90;;;;;;5111617;27;20228;-74
2023/07/06 06:12:18;;;;;;;2.60;2.40;;;16.50;99.90;;;;;;5126047;27;20687;-75
2023/07/06 06:14:49;;;;;;;2.70;2.20;;;16.50;99.90;;;;;;5126306;28;20235;-74
2023/07/06 06:17:17;;;;;;;2.40;2.20;;;16.60;99.90;;;;;;5126314;28;20196;-74
2023/07/06 06:19:45;;;;;;;3.00;2.37;;;16.70;99.90;;;;;;5125921;28;20209;-75
2023/07/06 06:22:15;;;;;;;5.83;2.40;;;16.80;99.90;;;;;;5125963;28;20232;-74
2023/07/06 06:24:44;;;;;;;2.27;2.07;;;16.80;99.90;;;;;;5125789;28;20225;-74
2023/07/06 06:27:13;;;;;;;3.10;2.00;;;16.80;99.90;;;;;;5146579;27;20245;-74
2023/07/06 06:29:42;;;;;;;2.20;2.00;;;16.90;99.90;;;;;;5146672;27;20204;-74
2023/07/06 06:32:10;;;;;;;2.93;2.17;;;17.00;99.90;;;;;;5146563;27;20208;-74
2023/07/06 06:34:37;;;;;;;2.50;1.83;;;17.00;99.90;;;;;;5146540;27;20312;-75
2023/07/06 06:37:04;;;;;;;2.50;1.70;;;17.00;99.90;;;;;;5146427;27;20200;-74
2023/07/06 06:39:33;;;;;;;1.63;1.47;;;17.10;99.90;;;;;;5142360;27;20209;-74
2023/07/06 06:42:02;;;;;;;2.80;2.03;;;17.20;99.90;;;;;;5125471;28;20699;-74
2023/07/06 06:44:30;;;;;;;2.57;1.90;;;17.20;99.90;;;;;;5125377;27;20214;-74
2023/07/06 06:46:58;;;;;;;1.83;1.70;;;17.40;99.90;;;;;;5125373;28;20323;-74
2023/07/06 06:49:26;;;;;;;2.07;1.87;;;17.40;99.90;;;;;;5125154;28;20275;-75
2023/07/06 06:51:53;;;;;;;2.87;2.03;;;17.50;99.90;;;;;;5125288;28;20327;-74
2023/07/06 06:54:20;;;;;;;2.43;1.67;;;17.40;99.90;;;;;;5125337;28;20551;-74
2023/07/06 06:56:49;;;;;;;2.40;2.10;;;17.50;99.90;;;;;;5142612;27;20240;-74
2023/07/06 06:59:16;;;;;;;2.77;1.70;;;17.60;99.90;;;;;;5146581;27;20212;-74
2023/07/06 07:01:43;;;;;;;2.10;1.67;;;17.60;99.90;;;;;;5146038;27;20751;-74
2023/07/06 07:04:10;;;;;;;1.83;1.73;;;17.50;99.90;;;;;;5146201;27;20231;-74
2023/07/06 07:06:38;;;;;;;1.90;1.80;;;17.60;99.90;;;;;;5145865;27;20636;-74
2023/07/06 07:09:06;;;;;;;1.87;1.77;;;17.60;99.90;;;;;;5145374;27;20981;-74
2023/07/06 07:11:33;;;;;;;2.27;2.10;;;17.70;99.90;;;;;;5124940;28;20233;-74
2023/07/06 07:14:02;;;;;;;3.30;1.87;;;17.70;99.90;;;;;;5125445;28;20205;-74
2023/07/06 07:16:29;;;;;;;2.33;1.50;;;17.80;99.90;;;;;;5125735;27;20217;-75
2023/07/06 07:18:56;;;;;;;2.20;1.77;;;17.80;99.90;;;;;;5129006;27;20205;-74
2023/07/06 07:21:23;;;;;;;3.23;1.80;;;17.80;99.90;;;;;;5128865;27;20236;-74
2023/07/06 07:23:50;;;;;;;2.50;1.77;;;17.70;99.90;;;;;;5128895;27;20264;-74
2023/07/06 07:26:19;;;;;;;3.30;1.90;;;17.80;99.90;;;;;;5141924;27;20209;-75
2023/07/06 07:28:48;;;;;;;2.93;1.70;;;17.90;99.90;;;;;;5140934;27;20201;-74
2023/07/06 07:31:17;;;;;;;1.77;1.67;;;18.00;99.90;;;;;;5128667;27;20240;-75
2023/07/06 07:33:44;;;;;;;2.13;1.43;;;18.00;99.90;;;;;;5128854;27;20213;-75
2023/07/06 07:36:13;;;;;;;1.63;1.43;;;18.10;99.90;;;;;;5127922;27;20212;-74
2023/07/06 07:38:40;;;;;;;4.90;1.87;;;18.20;99.90;;;;;;5108197;28;20297;-74
2023/07/06 07:41:08;;;;;;;3.37;1.60;;;18.10;99.90;;;;;;5108665;28;20336;-74
2023/07/06 07:43:41;;;;;;;2.57;1.40;;;18.20;99.90;;;;;;5114274;27;20882;-74
2023/07/06 07:46:10;;;;;;;2.00;1.30;;;18.30;99.90;;;;;;5128797;27;20229;-75
2023/07/06 07:48:45;;;;;;;1.50;1.40;;;18.40;99.90;;;;;;5128837;27;20212;-74
2023/07/06 07:51:13;;;;;;;2.40;1.60;;;18.30;99.90;;;;;;5128614;27;20221;-75
2023/07/06 07:53:41;;;;;;;1.67;1.30;;;18.30;99.90;;;;;;5128251;27;20307;-74
2023/07/06 07:56:08;;;;;;;4.23;1.60;;;18.20;99.90;;;;;;5139770;27;20233;-74
2023/07/06 07:58:37;;;;;;;2.23;1.50;;;18.30;99.90;;;;;;5149211;27;20212;-75
2023/07/06 08:01:06;;;;;;;1.50;1.40;;;18.40;99.90;;;;;;5149016;27;20337;-75
2023/07/06 08:03:35;;;;;;;1.50;1.37;;;18.30;99.90;;;;;;5148677;27;20303;-75
2023/07/06 08:06:05;;;;;;;2.27;1.37;;;18.40;99.90;;;;;;5142814;27;20564;-74
2023/07/06 08:08:33;;;;;;;2.50;1.80;;;18.40;99.90;;;;;;5108181;28;20703;-75
2023/07/06 08:11:03;;;;;;;2.00;1.30;;;18.50;99.90;;;;;;5108194;28;20283;-74
2023/07/06 08:13:31;;;;;;;1.83;1.53;;;18.50;99.90;;;;;;5107286;28;20284;-74
2023/07/06 08:15:58;;;;;;;2.27;1.40;;;18.60;99.90;;;;;;5107473;28;20202;-74
2023/07/06 08:18:25;;;;;;;1.67;1.50;;;18.60;99.90;;;;;;5106907;28;20992;-74
2023/07/06 08:20:54;;;;;;;1.50;1.40;;;18.60;99.90;;;;;;5107451;28;20292;-74
2023/07/06 08:23:23;;;;;;;1.50;1.40;;;18.80;99.90;;;;;;5107066;28;20226;-74
2023/07/06 08:25:52;;;;;;;1.70;1.60;;;18.80;99.90;;;;;;5125020;27;20213;-75
2023/07/06 08:28:21;;;;;;;1.60;1.50;;;19.00;99.90;;;;;;5143192;27;20198;-74
2023/07/06 08:30:48;;;;;;;1.50;1.40;;;19.00;99.90;;;;;;5127636;27;20294;-74
2023/07/06 08:33:16;;;;;;;1.57;1.47;;;19.10;99.90;;;;;;5113682;27;20267;-74
2023/07/06 08:35:45;;;;;;;3.53;1.60;;;19.20;99.90;;;;;;5106909;28;20202;-76
2023/07/06 08:38:13;;;;;;;1.50;1.37;;;19.10;99.90;;;;;;5124339;27;20212;-74
2023/07/06 08:40:43;;;;;;;1.60;1.50;;;19.10;99.90;;;;;;5140419;27;20236;-74
2023/07/06 08:43:16;;;;;;;1.90;1.57;;;19.20;99.90;;;;;;5148197;27;20207;-75
2023/07/06 08:45:46;;;;;;;1.80;1.67;;;19.30;99.90;;;;;;5147834;27;20212;-74
2023/07/06 08:48:16;;;;;;;2.00;1.80;;;19.30;99.90;;;;;;5147654;27;20201;-74
2023/07/06 08:50:48;;;;;;;1.60;1.50;;;19.10;99.90;;;;;;5147835;27;20231;-74
2023/07/06 08:53:16;;;;;;;1.57;1.43;;;19.10;99.90;;;;;;5148085;27;20279;-74
2023/07/06 08:55:45;;;;;;;1.50;1.40;;;19.30;99.90;;;;;;5139384;27;20273;-74
2023/07/06 08:58:17;;;;;;;2.40;1.57;;;19.40;99.90;;;;;;5127218;27;20194;-74
2023/07/06 09:00:44;;;;;;;1.27;1.17;;;19.50;99.90;;;;;;5127465;27;20308;-74
2023/07/06 09:03:17;;;;;;;1.40;1.30;;;19.60;99.90;;;;;;5127113;27;20210;-74
2023/07/06 09:05:47;;;;;;;2.90;1.97;;;19.80;99.90;;;;;;5126950;27;20285;-74
2023/07/06 09:08:18;;;;;;;1.97;1.80;;;19.80;99.90;;;;;;5109044;27;20578;-74
2023/07/06 09:10:47;;;;;;;2.20;1.77;;;19.70;99.90;;;;;;5106480;28;20536;-74
2023/07/06 09:13:22;;;;;;;1.80;1.70;;;19.80;99.90;;;;;;5106399;28;20210;-74
2023/07/06 09:15:54;;;;;;;2.13;1.50;;;19.80;99.90;;;;;;5106532;28;20189;-74
2023/07/06 09:18:21;;;;;;;1.90;1.80;;;19.80;99.90;;;;;;5106617;28;20202;-74
2023/07/06 09:20:49;;;;;;;1.60;1.50;;;19.80;99.90;;;;;;5106252;28;20198;-75
2023/07/06 09:23:17;;;;;;;2.70;1.70;;;19.90;99.90;;;;;;5106330;28;20237;-74
2023/07/06 09:25:47;;;;;;;4.70;1.97;;;20.10;99.90;;;;;;5106480;28;20251;-74
2023/07/06 09:28:18;;;;;;;2.35;2.05;;;20.20;99.90;;;;;;5106459;27;20207;-74
2023/07/06 09:30:47;;;;;;;1.95;1.77;;;20.30;99.90;;;;;;5106751;28;20194;-75
2023/07/06 09:33:19;;;;;;;3.40;1.70;;;20.40;99.90;;;;;;5106776;28;20248;-75
2023/07/06 09:35:47;;;;;;;1.70;1.60;;;20.40;99.90;;;;;;5106134;28;20619;-75
2023/07/06 09:38:15;;;;;;;1.90;1.80;;;20.50;99.90;;;;;;5124182;27;20295;-75
2023/07/06 09:40:43;;;;;;;1.95;1.85;;;20.50;99.90;;;;;;5125622;27;20566;-74
2023/07/06 09:43:26;;;;;;;1.75;1.65;;;20.60;99.90;;;;;;5126893;27;20212;-74
2023/07/06 09:45:55;;;;;;;18.77;2.55;;;20.70;99.90;;;;;;5126477;27;20195;-78
2023/07/06 09:48:31;;;;;;;3.53;2.03;;;20.80;99.90;;;;;;5126192;27;20237;-74
2023/07/06 09:51:06;;;;;;;2.33;1.67;;;20.90;99.90;;;;;;5126063;27;20727;-74
2023/07/06 09:53:38;;;;;;;1.77;1.63;;;21.00;99.90;;;;;;5126221;27;20197;-75
2023/07/06 09:56:10;;;;;;;1.50;1.40;;;20.70;99.90;;;;;;5136939;27;20714;-75
2023/07/06 09:58:41;;;;;;;4.27;1.80;;;20.60;99.90;;;;;;5146834;27;20195;-74
2023/07/06 10:01:15;;;;;;;1.63;1.40;;;20.60;99.90;;;;;;5147535;27;20188;-74
2023/07/06 10:03:52;;;;;;;1.70;1.52;;;20.50;99.90;;;;;;5147139;27;20193;-75
2023/07/06 10:06:30;;;;;;;3.70;1.70;;;20.50;99.90;;;;;;5144723;27;20381;-74
2023/07/06 10:09:03;;;;;;;1.33;1.20;;;20.30;99.90;;;;;;5125877;27;20198;-74
2023/07/06 10:11:39;;;;;;;1.77;1.67;;;20.20;99.90;;;;;;5125955;27;20219;-74
2023/07/06 10:14:15;;;;;;;1.60;1.50;;;20.20;99.90;;;;;;5126240;28;20193;-74
2023/07/06 10:16:51;;;;;;;2.27;1.70;;;20.10;99.90;;;;;;5126078;28;20224;-74
2023/07/06 10:19:26;;;;;;;2.13;1.43;;;20.20;99.90;;;;;;5126071;28;20277;-74
2023/07/06 10:22:04;;;;;;;1.83;1.50;;;20.40;99.90;;;;;;5125977;28;20309;-74
2023/07/06 10:24:38;;;;;;;5.90;1.70;;;20.60;99.90;;;;;;5122094;27;20206;-75
2023/07/06 10:27:12;;;;;;;1.40;1.40;;;20.70;99.90;;;;;;5144671;27;20222;-74
2023/07/06 10:29:45;;;;;;;1.83;1.73;;;20.90;99.90;;;;;;5130532;27;20190;-74
2023/07/06 10:32:15;;;;;;;1.60;1.50;;;21.00;99.90;;;;;;5125702;27;20755;-74
2023/07/06 10:34:53;;;;;;;4.13;1.83;;;21.20;99.90;;;;;;5126167;28;20288;-74
2023/07/06 10:37:22;;;;;;;1.65;1.55;;;21.30;99.90;;;;;;5126028;28;20206;-75
2023/07/06 10:40:04;;;;;;;1.65;1.55;;;21.50;99.90;;;;;;5125709;28;20233;-75
2023/07/06 10:42:32;;;;;;;4.35;1.80;;;21.50;99.90;;;;;;5125753;28;20185;-75
2023/07/06 10:45:02;;;;;;;1.45;1.20;;;21.50;99.90;;;;;;5125518;28;20694;-74
2023/07/06 10:47:37;;;;;;;2.63;1.70;;;21.40;99.90;;;;;;5125156;28;20296;-75
2023/07/06 10:50:13;;;;;;;1.50;1.40;;;21.20;99.90;;;;;;5125199;28;20288;-74
2023/07/06 10:52:43;;;;;;;3.28;1.60;;;21.10;99.90;;;;;;5129121;27;20376;-75
2023/07/06 10:55:20;;;;;;;1.77;1.67;;;20.90;99.90;;;;;;5132792;27;20316;-74
2023/07/06 10:57:52;;;;;;;1.70;1.63;;;20.90;99.90;;;;;;5149820;27;20331;-75
2023/07/06 11:00:30;;;;;;;3.13;1.50;;;20.70;99.80;;;;;;5108884;28;20186;-74
2023/07/06 11:02:57;;;;;;;1.83;1.73;;;20.70;99.90;;;;;;5109004;28;20305;-74
2023/07/06 11:05:28;;;;;;;1.88;1.50;;;20.80;99.90;;;;;;5108947;28;20301;-74
2023/07/06 11:07:57;;;;;;;1.77;1.67;;;20.90;99.50;;;;;;5108782;28;20325;-75
2023/07/06 11:10:32;;;;;;;1.60;1.50;;;20.90;99.90;;;;;;5108421;28;20210;-74
2023/07/06 11:13:16;;;;;;;1.80;1.70;;;20.80;99.90;;;;;;5108615;28;20222;-75
2023/07/06 11:15:59;;;;;;;1.43;1.17;;;20.80;99.90;;;;;;5108485;28;20384;-75
2023/07/06 11:18:33;;;;;;;1.42;1.33;;;20.80;99.90;;;;;;5108112;28;20191;-74
2023/07/06 11:21:08;;;;;;;2.77;1.83;;;20.80;99.90;;;;;;5107868;28;20202;-75
2023/07/06 11:23:39;;;;;;;1.65;1.55;;;20.80;99.90;;;;;;5108180;28;20194;-75
2023/07/06 11:26:17;;;;;;;1.70;1.60;;;20.80;99.90;;;;;;5130868;27;20835;-75
2023/07/06 11:28:44;;;;;;;2.73;1.70;;;20.70;99.90;;;;;;5133781;27;20251;-75
2023/07/06 11:31:27;;;;;;;1.80;1.70;;;20.60;99.90;;;;;;5108003;28;20206;-74
2023/07/06 11:34:03;;;;;;;1.70;1.60;;;20.50;99.90;;;;;;5108219;28;20196;-74
2023/07/06 11:36:39;;;;;;;2.22;1.70;;;20.50;99.90;;;;;;5108030;28;20205;-74
2023/07/06 11:39:18;;;;;;;1.87;1.77;;;20.60;99.90;;;;;;5108291;28;20198;-75
2023/07/06 11:41:53;;;;;;;3.70;1.87;;;20.70;99.90;;;;;;5108362;28;20194;-76
2023/07/06 11:44:31;;;;;;;1.73;1.60;;;20.90;99.90;;;;;;5108192;28;20193;-74
2023/07/06 11:47:24;;;;;;;1.67;1.58;;;21.00;99.90;;;;;;5108089;28;20197;-74
2023/07/06 11:49:53;;;;;;;2.00;1.77;;;21.00;99.90;;;;;;5108045;28;20656;-74
2023/07/06 11:52:24;;;;;;;2.08;1.75;;;21.20;99.90;;;;;;5107925;28;20606;-75
2023/07/06 11:54:54;;;;;;;1.88;1.70;;;21.30;99.90;;;;;;5107518;28;20637;-74
2023/07/06 11:57:28;;;;;;;1.92;1.80;;;21.50;99.90;;;;;;5107520;28;20242;-74
2023/07/06 12:00:17;;;;;;;1.98;1.77;;;21.70;99.90;;;;;;5125960;27;20205;-75
2023/07/06 12:02:49;;;;;;;3.08;1.90;;;22.10;99.90;;;;;;5128174;27;20193;-74
2023/07/06 12:05:26;;;;;;;3.15;1.77;;;22.60;99.90;;;;;;5128289;27;20197;-74
2023/07/06 12:07:58;;;;;;;6.88;1.52;;;23.00;99.00;;;;;;5128332;27;20194;-74
2023/07/06 12:10:26;;;;;;;2.33;1.85;;;23.20;99.20;;;;;;5127802;27;20205;-74
2023/07/06 12:12:55;;;;;;;1.40;1.30;;;23.60;99.20;;;;;;5128213;27;20229;-74
2023/07/06 12:15:23;;;;;;;2.28;1.50;;;24.00;98.10;;;;;;5127969;27;20667;-75
2023/07/06 12:17:56;;;;;;;1.50;1.40;;;24.10;97.40;;;;;;5118266;27;20210;-74
2023/07/06 12:20:25;;;;;;;1.80;1.58;;;24.10;97.70;;;;;;5107638;28;20194;-74
2023/07/06 12:22:53;;;;;;;2.85;1.45;;;24.00;97.60;;;;;;5107251;28;20589;-74
2023/07/06 12:25:21;;;;;;;1.83;1.48;;;23.30;94.40;;;;;;5107368;27;20310;-74
2023/07/06 12:27:48;;;;;;;1.67;1.58;;;22.90;95.10;;;;;;5106901;28;20704;-74
2023/07/06 12:30:17;;;;;;;1.35;1.25;;;22.70;95.20;;;;;;5107382;28;20212;-74
2023/07/06 12:32:46;;;;;;;1.40;1.30;;;22.50;95.40;;;;;;5107346;28;20238;-74
2023/07/06 12:35:15;;;;;;;1.30;1.30;;;22.50;95.70;;;;;;5106958;28;20201;-74
2023/07/06 12:37:45;;;;;;;1.73;1.60;;;22.50;95.30;;;;;;5107104;28;20211;-74
2023/07/06 12:40:20;;;;;;;1.70;1.60;;;22.50;95.50;;;;;;5107556;28;20221;-74
2023/07/06 12:42:47;;;;;;;3.33;1.38;;;22.60;95.50;;;;;;5107199;28;20220;-74
2023/07/06 12:45:18;;;;;;;1.48;1.42;;;22.60;95.20;;;;;;5107262;28;20229;-75
2023/07/06 12:47:45;;;;;;;1.55;1.45;;;22.60;95.10;;;;;;5107183;28;20247;-75
2023/07/06 12:50:16;;;;;;;1.67;1.58;;;22.70;94.80;;;;;;5107132;28;20212;-74
2023/07/06 12:52:45;;;;;;;4.20;1.40;;;23.00;94.50;;;;;;5106565;28;20759;-74
2023/07/06 12:55:15;;;;;;;1.80;1.40;;;23.10;95.00;;;;;;5122168;27;20558;-75
2023/07/06 12:57:44;;;;;;;4.85;1.50;;;23.10;94.60;;;;;;5117570;27;20600;-74
2023/07/06 13:00:17;;;;;;;2.05;1.83;;;23.00;94.30;;;;;;5117189;27;20202;-74
2023/07/06 13:02:45;;;;;;;1.83;1.50;;;22.80;94.10;;;;;;5117127;27;20203;-74